createdAt,value
2022-08-18T00:01:11.548Z,59.35
2022-08-18T00:03:56.706Z,59.62
2022-08-18T00:06:28.677Z,59.56
2022-08-18T00:08:58.713Z,59.73
2022-08-18T00:11:27.420Z,59.71
2022-08-18T00:13:55.597Z,59.71
2022-08-18T00:16:23.929Z,59.96
2022-08-18T00:18:53.319Z,60.11
2022-08-18T00:21:21.401Z,60.27
2022-08-18T00:23:49.696Z,60.38
2022-08-18T00:26:17.846Z,60.47
2022-08-18T00:28:45.806Z,60.44
2022-08-18T00:31:14.470Z,60.63
2022-08-18T00:33:43.877Z,60.74
2022-08-18T00:36:14.040Z,60.79
2022-08-18T00:38:42.059Z,61.06
2022-08-18T00:41:10.237Z,61.06
2022-08-18T00:43:42.864Z,61.24
2022-08-18T00:46:15.502Z,61.40
2022-08-18T00:48:48.448Z,61.28
2022-08-18T00:51:22.261Z,61.41
2022-08-18T00:53:53.827Z,61.64
2022-08-18T00:56:25.605Z,61.72
2022-08-18T00:58:59.471Z,61.85
2022-08-18T01:01:31.820Z,61.97
2022-08-18T01:04:07.463Z,61.97
2022-08-18T01:06:41.516Z,62.30
2022-08-18T01:09:10.341Z,62.27
2022-08-18T01:11:39.497Z,62.34
2022-08-18T01:14:10.357Z,62.36
2022-08-18T01:16:57.145Z,62.61
2022-08-18T01:19:45.286Z,62.62
2022-08-18T01:22:22.572Z,62.85
2022-08-18T01:25:11.200Z,63.02
2022-08-18T01:27:41.886Z,63.04
2022-08-18T01:30:12.869Z,63.12
2022-08-18T01:32:42.612Z,63.10
2022-08-18T01:35:12.618Z,63.28
2022-08-18T01:37:44.210Z,63.47
2022-08-18T01:41:17.511Z,63.34
2022-08-18T01:43:05.804Z,63.54
2022-08-18T01:45:34.635Z,63.70
2022-08-18T01:48:04.848Z,63.76
2022-08-18T01:50:35.309Z,63.89
2022-08-18T01:53:05.529Z,64.21
2022-08-18T01:55:36.834Z,64.17
2022-08-18T01:58:05.630Z,64.14
2022-08-18T02:00:33.834Z,64.42
2022-08-18T02:03:03.074Z,64.64
2022-08-18T02:05:37.298Z,64.59
2022-08-18T02:08:06.799Z,64.74
2022-08-18T02:10:36.699Z,65.02
2022-08-18T02:13:08.001Z,64.83
2022-08-18T02:15:36.550Z,65.11
2022-08-18T02:18:06.974Z,65.22
2022-08-18T02:20:38.205Z,65.36
2022-08-18T02:23:06.329Z,65.47
2022-08-18T02:25:34.494Z,65.34
2022-08-18T02:28:04.678Z,65.37
2022-08-18T02:30:33.140Z,65.69
2022-08-18T02:33:01.686Z,65.78
2022-08-18T02:35:29.694Z,65.79
2022-08-18T02:38:00.027Z,65.89
2022-08-18T02:40:28.632Z,66.02
2022-08-18T02:42:57.052Z,65.96
2022-08-18T02:45:26.577Z,66.08
2022-08-18T02:47:55.630Z,66.39
2022-08-18T02:50:25.213Z,66.21
2022-08-18T02:52:54.267Z,66.39
2022-08-18T02:55:22.810Z,66.36
2022-08-18T02:57:51.093Z,66.87
2022-08-18T03:00:20.816Z,66.81
2022-08-18T03:02:53.673Z,66.74
2022-08-18T03:05:22.049Z,67.09
2022-08-18T03:07:51.176Z,67.06
2022-08-18T03:10:33.306Z,67.29
2022-08-18T03:13:02.991Z,67.22
2022-08-18T03:15:31.077Z,67.35
2022-08-18T03:18:01.284Z,67.59
2022-08-18T03:20:31.085Z,67.40
2022-08-18T03:23:09.581Z,67.53
2022-08-18T03:25:37.871Z,67.82
2022-08-18T03:28:07.088Z,68.00
2022-08-18T03:30:35.026Z,67.77
2022-08-18T03:33:05.096Z,68.00
2022-08-18T03:35:35.606Z,68.06
2022-08-18T03:38:04.970Z,68.24
2022-08-18T03:40:35.585Z,68.42
2022-08-18T03:43:49.822Z,68.56
2022-08-18T03:45:57.810Z,68.38
2022-08-18T03:48:31.669Z,68.69
2022-08-18T03:51:05.513Z,68.85
2022-08-18T03:53:34.277Z,68.87
2022-08-18T03:56:02.453Z,69.05
2022-08-18T03:58:55.553Z,68.93
2022-08-18T04:01:27.380Z,69.21
2022-08-18T04:04:02.334Z,69.11
2022-08-18T04:06:33.103Z,69.38
2022-08-18T04:09:04.432Z,69.47
2022-08-18T04:11:35.906Z,69.52
2022-08-18T04:14:06.418Z,69.63
2022-08-18T04:16:35.058Z,69.68
2022-08-18T04:19:04.737Z,69.80
2022-08-18T04:21:34.914Z,69.87
2022-08-18T04:24:05.235Z,70.03
2022-08-18T04:26:37.476Z,70.12
2022-08-18T04:29:06.090Z,69.97
2022-08-18T04:31:35.708Z,70.16
2022-08-18T04:34:05.985Z,70.40
2022-08-18T04:36:35.975Z,70.52
2022-08-18T04:39:07.093Z,70.58
2022-08-18T04:41:35.944Z,70.51
2022-08-18T04:44:07.646Z,70.68
2022-08-18T04:46:37.258Z,70.84
2022-08-18T04:49:06.821Z,70.98
2022-08-18T04:52:37.208Z,71.06
2022-08-18T04:54:24.839Z,71.09
2022-08-18T04:56:53.079Z,71.19
2022-08-18T04:59:21.129Z,71.24
2022-08-18T05:01:49.290Z,71.52
2022-08-18T05:04:19.091Z,71.53
2022-08-18T05:06:47.711Z,71.77
2022-08-18T05:09:23.145Z,71.70
2022-08-18T05:11:51.708Z,71.92
2022-08-18T05:14:20.405Z,71.85
2022-08-18T05:16:49.713Z,71.95
2022-08-18T05:19:23.221Z,72.14
2022-08-18T05:21:59.577Z,72.10
2022-08-18T05:24:37.376Z,72.17
2022-08-18T05:27:07.574Z,72.42
2022-08-18T05:29:41.947Z,72.52
2022-08-18T05:32:46.436Z,72.49
2022-08-18T05:35:08.433Z,72.68
2022-08-18T05:37:44.414Z,72.71
2022-08-18T05:40:15.311Z,72.82
2022-08-18T05:42:44.063Z,72.87
2022-08-18T05:45:16.685Z,72.86
2022-08-18T05:47:45.726Z,73.04
2022-08-18T05:50:18.692Z,73.04
2022-08-18T05:52:53.659Z,73.16
2022-08-18T05:55:47.647Z,72.87
2022-08-18T05:58:19.412Z,73.23
2022-08-18T06:00:58.807Z,73.16
2022-08-18T06:03:45.034Z,73.29
2022-08-18T06:06:20.256Z,73.41
2022-08-18T06:08:53.864Z,73.29
2022-08-18T06:11:22.446Z,73.54
2022-08-18T06:13:59.538Z,73.58
2022-08-18T06:16:47.127Z,73.48
2022-08-18T06:19:31.156Z,73.65
2022-08-18T06:22:12.678Z,73.60
2022-08-18T06:24:50.098Z,73.63
2022-08-18T06:27:31.338Z,73.34
2022-08-18T06:30:07.381Z,73.87
2022-08-18T06:32:54.740Z,73.76
2022-08-18T06:35:34.588Z,73.82
2022-08-18T06:38:26.937Z,73.67
2022-08-18T06:41:03.016Z,73.85
2022-08-18T06:43:34.320Z,73.82
2022-08-18T06:46:09.448Z,73.80
2022-08-18T06:48:45.598Z,73.69
2022-08-18T06:51:20.096Z,73.68
2022-08-18T06:53:55.607Z,73.81
2022-08-18T06:56:28.601Z,73.67
2022-08-18T06:59:15.640Z,73.72
2022-08-18T07:01:45.908Z,73.58
2022-08-18T07:04:37.550Z,73.80
2022-08-18T07:07:18.310Z,73.63
2022-08-18T07:09:50.675Z,73.69
2022-08-18T07:12:26.719Z,73.55
2022-08-18T07:15:00.924Z,73.62
2022-08-18T07:17:43.252Z,73.36
2022-08-18T07:20:21.440Z,73.42
2022-08-18T07:22:55.193Z,73.38
2022-08-18T07:25:29.073Z,73.64
2022-08-18T07:27:57.781Z,73.61
2022-08-18T07:30:35.151Z,73.51
2022-08-18T07:33:14.435Z,73.56
2022-08-18T07:35:47.867Z,73.27
2022-08-18T07:41:15.833Z,73.35
2022-08-18T07:43:55.021Z,73.16
2022-08-18T07:46:31.497Z,73.16
2022-08-18T07:48:59.959Z,72.98
2022-08-18T07:51:43.826Z,72.99
2022-08-18T07:54:48.210Z,72.72
2022-08-18T07:57:20.978Z,72.76
2022-08-18T07:59:56.545Z,72.75
2022-08-18T08:02:36.428Z,72.63
2022-08-18T08:05:16.281Z,72.38
2022-08-18T08:07:51.671Z,72.08
2022-08-18T08:10:39.003Z,72.49
2022-08-18T08:13:36.971Z,71.94
2022-08-18T08:16:16.294Z,72.15
2022-08-18T08:18:56.635Z,72.06
2022-08-18T08:21:29.998Z,71.98
2022-08-18T08:24:11.456Z,71.94
2022-08-18T08:26:52.076Z,71.47
2022-08-18T08:29:37.663Z,71.25
2022-08-18T08:32:08.479Z,71.43
2022-08-18T08:34:43.868Z,71.35
2022-08-18T08:37:15.990Z,71.18
2022-08-18T08:39:49.818Z,70.88
2022-08-18T08:42:30.638Z,70.57
2022-08-18T08:45:07.959Z,70.29
2022-08-18T08:47:39.579Z,70.30
2022-08-18T08:50:13.323Z,70.12
2022-08-18T08:52:47.566Z,70.25
2022-08-18T08:55:21.671Z,69.99
2022-08-18T08:57:57.289Z,69.92
2022-08-18T09:03:31.076Z,69.41
2022-08-18T09:06:10.236Z,69.39
2022-08-18T09:08:56.055Z,69.17
2022-08-18T09:11:37.180Z,68.89
2022-08-18T09:14:44.481Z,69.04
2022-08-18T09:17:34.599Z,68.64
2022-08-18T09:20:17.624Z,68.37
2022-08-18T09:22:52.413Z,68.12
2022-08-18T09:25:45.210Z,68.20
2022-08-18T09:28:15.916Z,67.76
2022-08-18T09:31:19.557Z,67.59
2022-08-18T09:34:10.911Z,67.48
2022-08-18T09:36:59.333Z,67.49
2022-08-18T09:39:54.397Z,67.09
2022-08-18T09:42:50.076Z,66.75
2022-08-18T09:45:55.542Z,66.74
2022-08-18T09:48:30.581Z,66.36
2022-08-18T09:51:23.530Z,65.89
2022-08-18T09:54:14.973Z,65.51
2022-08-18T09:57:24.455Z,65.39
2022-08-18T10:00:00.406Z,65.23
2022-08-18T10:03:11.463Z,64.90
2022-08-18T10:05:40.587Z,64.46
2022-08-18T10:08:52.849Z,64.48
2022-08-18T10:11:52.789Z,63.82
2022-08-18T10:14:51.603Z,63.23
2022-08-18T10:17:33.146Z,63.27
2022-08-18T10:20:26.299Z,62.64
2022-08-18T10:22:59.383Z,62.41
2022-08-18T10:25:54.936Z,61.94
2022-08-18T10:28:54.754Z,61.58
2022-08-18T10:31:24.077Z,61.24
2022-08-18T10:34:16.355Z,61.44
2022-08-18T10:36:54.208Z,60.97
2022-08-18T10:39:46.608Z,60.68
2022-08-18T10:42:31.285Z,60.45
2022-08-18T10:45:16.068Z,59.62
2022-08-18T10:48:03.346Z,59.67
2022-08-18T10:50:37.245Z,59.42
2022-08-18T10:53:40.885Z,59.29
2022-08-18T10:56:10.339Z,58.68
2022-08-18T10:58:55.785Z,58.81
2022-08-18T11:01:51.302Z,58.02
2022-08-18T11:04:34.036Z,57.79
2022-08-18T11:07:10.992Z,57.63
2022-08-18T11:09:51.033Z,57.37
2022-08-18T11:12:58.064Z,57.16
2022-08-18T11:15:38.769Z,56.59
2022-08-18T11:18:20.269Z,56.24
2022-08-18T11:20:48.514Z,56.19
2022-08-18T11:23:19.357Z,56.04
2022-08-18T11:28:40.744Z,55.61
2022-08-18T11:31:15.140Z,55.07
2022-08-18T11:33:43.651Z,55.12
2022-08-18T11:36:11.823Z,54.73
2022-08-18T11:38:42.194Z,54.55
2022-08-18T11:41:19.273Z,54.34
2022-08-18T11:43:50.575Z,54.32
2022-08-18T11:46:31.534Z,54.03
2022-08-18T11:49:16.664Z,53.86
2022-08-18T11:51:57.745Z,53.58
2022-08-18T11:57:31.577Z,53.16
2022-08-18T12:00:00.546Z,53.12
2022-08-18T12:02:30.852Z,52.92
2022-08-18T12:05:08.586Z,52.94
2022-08-18T12:07:57.417Z,52.52
2022-08-18T12:10:34.498Z,52.67
2022-08-18T12:13:03.727Z,52.22
2022-08-18T12:15:44.275Z,52.05
2022-08-18T12:18:18.706Z,51.92
2022-08-18T12:20:54.990Z,51.76
2022-08-18T12:23:23.540Z,51.74
2022-08-18T12:25:51.918Z,51.77
2022-08-18T12:31:15.085Z,51.49
2022-08-18T12:34:00.942Z,51.10
2022-08-18T12:36:32.967Z,50.93
2022-08-18T12:39:02.062Z,50.95
2022-08-18T12:41:30.948Z,50.83
2022-08-18T12:43:59.896Z,50.48
2022-08-18T12:46:29.015Z,50.53
2022-08-18T12:49:01.070Z,50.53
2022-08-18T12:51:30.941Z,50.58
2022-08-18T12:54:00.364Z,50.54
2022-08-18T12:56:31.791Z,50.38
2022-08-18T12:59:04.310Z,50.20
2022-08-18T13:01:37.700Z,50.16
2022-08-18T13:04:12.817Z,50.01
2022-08-18T13:06:59.156Z,50.26
2022-08-18T13:09:34.218Z,50.00
2022-08-18T13:12:14.934Z,49.92
2022-08-18T13:14:44.481Z,49.94
2022-08-18T13:17:32.496Z,49.73
2022-08-18T13:20:06.452Z,49.78
2022-08-18T13:22:36.108Z,49.50
2022-08-18T13:25:07.408Z,49.67
2022-08-18T13:27:37.610Z,49.62
2022-08-18T13:30:16.713Z,49.65
2022-08-18T13:33:00.231Z,49.79
2022-08-18T13:35:35.478Z,49.34
2022-08-18T13:38:15.660Z,49.28
2022-08-18T13:40:49.854Z,49.44
2022-08-18T13:43:21.774Z,49.32
2022-08-18T13:45:52.786Z,49.10
2022-08-18T13:48:21.578Z,49.18
2022-08-18T13:50:56.029Z,48.96
2022-08-18T13:53:26.304Z,49.34
2022-08-18T13:55:58.152Z,49.14
2022-08-18T13:58:28.075Z,48.94
2022-08-18T14:01:22.438Z,49.06
2022-08-18T14:03:48.262Z,49.04
2022-08-18T14:06:23.804Z,49.32
2022-08-18T14:08:53.170Z,49.05
2022-08-18T14:11:27.598Z,49.21
2022-08-18T14:14:01.938Z,48.85
2022-08-18T14:16:30.789Z,48.90
2022-08-18T14:19:17.780Z,48.77
2022-08-18T14:22:11.373Z,48.93
2022-08-18T14:24:58.790Z,49.06
2022-08-18T14:27:34.717Z,49.02
2022-08-18T14:30:04.577Z,49.06
2022-08-18T14:32:36.773Z,49.07
2022-08-18T14:35:33.386Z,48.77
2022-08-18T14:38:05.577Z,48.94
2022-08-18T14:40:37.354Z,49.17
2022-08-18T14:43:10.741Z,48.98
2022-08-18T14:45:39.255Z,48.90
2022-08-18T14:48:11.170Z,48.94
2022-08-18T14:50:44.817Z,49.28
2022-08-18T14:53:21.093Z,49.00
2022-08-18T14:55:52.699Z,49.07
2022-08-18T14:58:21.539Z,49.08
2022-08-18T15:00:54.214Z,49.15
2022-08-18T15:03:28.144Z,49.29
2022-08-18T15:06:04.763Z,49.26
2022-08-18T15:08:36.399Z,49.28
2022-08-18T15:11:11.726Z,49.32
2022-08-18T15:13:42.338Z,49.13
2022-08-18T15:16:13.884Z,49.48
2022-08-18T15:18:42.449Z,49.54
2022-08-18T15:21:35.366Z,49.50
2022-08-18T15:24:37.681Z,49.45
2022-08-18T15:27:10.523Z,49.57
2022-08-18T15:29:47.503Z,49.52
2022-08-18T15:32:18.768Z,49.62
2022-08-18T15:34:51.242Z,49.69
2022-08-18T15:37:24.462Z,49.71
2022-08-18T15:40:05.581Z,49.77
2022-08-18T15:42:35.887Z,49.98
2022-08-18T15:45:11.852Z,49.85
2022-08-18T15:47:46.500Z,49.97
2022-08-18T15:50:25.598Z,49.79
2022-08-18T15:52:56.560Z,49.96
2022-08-18T15:55:28.803Z,50.08
2022-08-18T15:57:58.327Z,50.24
2022-08-18T16:00:28.446Z,50.28
2022-08-18T16:03:05.599Z,50.06
2022-08-18T16:05:40.880Z,50.21
2022-08-18T16:08:11.846Z,50.66
2022-08-18T16:10:42.401Z,50.32
2022-08-18T16:13:10.662Z,50.55
2022-08-18T16:15:41.943Z,50.82
2022-08-18T16:18:10.622Z,50.76
2022-08-18T16:20:39.147Z,50.82
2022-08-18T16:23:07.715Z,50.69
2022-08-18T16:25:39.134Z,50.83
2022-08-18T16:28:08.800Z,50.99
2022-08-18T16:30:37.276Z,51.26
2022-08-18T16:33:07.666Z,50.94
2022-08-18T16:35:37.594Z,51.17
2022-08-18T16:38:08.818Z,51.06
2022-08-18T16:40:37.617Z,51.19
2022-08-18T16:43:07.330Z,51.38
2022-08-18T16:45:38.063Z,51.59
2022-08-18T16:48:08.282Z,51.63
2022-08-18T16:50:37.892Z,51.51
2022-08-18T16:53:06.346Z,51.67
2022-08-18T16:55:35.436Z,51.99
2022-08-18T16:58:20.765Z,51.95
2022-08-18T17:01:07.836Z,51.99
2022-08-18T17:03:53.228Z,52.17
2022-08-18T17:06:21.555Z,52.10
2022-08-18T17:08:49.495Z,52.18
2022-08-18T17:11:20.504Z,52.52
2022-08-18T17:13:50.186Z,52.34
2022-08-18T17:16:21.265Z,52.57
2022-08-18T17:18:50.123Z,52.66
2022-08-18T17:21:25.368Z,52.83
2022-08-18T17:23:54.257Z,52.79
2022-08-18T17:26:33.730Z,52.84
2022-08-18T17:29:10.427Z,53.07
2022-08-18T17:31:44.369Z,53.04
2022-08-18T17:34:15.535Z,53.37
2022-08-18T17:36:52.957Z,53.24
2022-08-18T17:39:26.870Z,53.28
2022-08-18T17:42:17.606Z,53.47
2022-08-18T17:44:52.274Z,53.39
2022-08-18T17:47:27.464Z,53.58
2022-08-18T17:50:27.743Z,53.62
2022-08-18T17:53:05.533Z,53.89
2022-08-18T17:55:39.286Z,54.08
2022-08-18T17:58:13.649Z,53.92
2022-08-18T18:00:42.072Z,54.09
2022-08-18T18:03:13.280Z,54.24
2022-08-18T18:05:44.853Z,54.32
2022-08-18T18:08:13.030Z,54.41
2022-08-18T18:11:02.345Z,54.50
2022-08-18T18:13:32.826Z,54.68
2022-08-18T18:16:02.423Z,54.84
2022-08-18T18:18:46.216Z,54.86
2022-08-18T18:21:22.927Z,55.11
2022-08-18T18:24:16.206Z,54.92
2022-08-18T18:26:48.106Z,55.19
2022-08-18T18:29:29.285Z,55.36
2022-08-18T18:32:03.518Z,55.30
2022-08-18T18:34:39.810Z,55.40
2022-08-18T18:37:26.859Z,55.38
2022-08-18T18:40:00.188Z,55.61
2022-08-18T18:42:31.192Z,55.75
2022-08-18T18:45:01.551Z,55.80
2022-08-18T18:47:56.026Z,56.02
2022-08-18T18:50:33.118Z,56.05
2022-08-18T18:53:18.383Z,56.13
2022-08-18T18:56:02.900Z,56.19
2022-08-18T18:58:47.034Z,56.25
2022-08-18T19:01:24.083Z,56.47
2022-08-18T19:03:58.896Z,56.45
2022-08-18T19:06:33.833Z,56.80
2022-08-18T19:09:09.698Z,56.70
2022-08-18T19:11:53.204Z,56.87
2022-08-18T19:14:26.681Z,56.92
2022-08-18T19:17:02.878Z,57.17
2022-08-18T19:19:39.079Z,57.29
2022-08-18T19:22:14.934Z,57.45
2022-08-18T19:24:53.738Z,57.44
2022-08-18T19:27:28.211Z,57.66
2022-08-18T19:30:01.375Z,57.53
2022-08-18T19:32:38.497Z,57.88
2022-08-18T19:35:12.088Z,57.90
2022-08-18T19:37:57.291Z,57.94
2022-08-18T19:40:30.610Z,58.10
2022-08-18T19:43:04.873Z,58.21
2022-08-18T19:45:37.512Z,58.36
2022-08-18T19:48:13.083Z,58.50
2022-08-18T19:50:49.312Z,58.57
2022-08-18T19:53:33.547Z,58.63
2022-08-18T19:56:21.477Z,58.81
2022-08-18T19:59:17.899Z,58.94
2022-08-18T20:02:05.731Z,59.10
2022-08-18T20:04:52.096Z,59.04
2022-08-18T20:07:55.328Z,59.28
2022-08-18T20:10:46.824Z,59.47
2022-08-18T20:13:33.941Z,59.47
2022-08-18T20:16:16.094Z,59.51
2022-08-18T20:18:45.826Z,59.74
2022-08-18T20:21:39.809Z,59.75
2022-08-18T20:24:18.674Z,59.91
2022-08-18T20:26:51.137Z,60.01
2022-08-18T20:29:36.854Z,60.06
2022-08-18T20:32:18.260Z,60.26
2022-08-18T20:34:50.391Z,60.12
2022-08-18T20:37:27.326Z,60.27
2022-08-18T20:39:56.551Z,60.31
2022-08-18T20:42:57.538Z,60.60
2022-08-18T20:45:45.712Z,60.70
2022-08-18T20:48:25.987Z,60.81
2022-08-18T20:51:10.369Z,60.94
2022-08-18T20:53:56.189Z,61.09
2022-08-18T20:56:43.831Z,61.03
2022-08-18T20:59:20.247Z,61.06
2022-08-18T21:01:59.327Z,61.29
2022-08-18T21:04:42.935Z,61.36
2022-08-18T21:07:36.794Z,61.48
2022-08-18T21:10:12.840Z,61.53
2022-08-18T21:12:51.785Z,61.74
2022-08-18T21:15:24.371Z,61.76
2022-08-18T21:18:01.010Z,61.99
2022-08-18T21:20:29.794Z,61.91
2022-08-18T21:23:07.949Z,62.00
2022-08-18T21:25:36.961Z,62.14
2022-08-18T21:28:07.628Z,62.24
2022-08-18T21:30:38.444Z,62.31
2022-08-18T21:33:20.145Z,62.47
2022-08-18T21:35:48.631Z,62.53
2022-08-18T21:38:24.986Z,62.69
2022-08-18T21:40:57.360Z,62.82
2022-08-18T21:43:39.461Z,62.71
2022-08-18T21:46:10.302Z,62.99
2022-08-18T21:48:47.957Z,63.20
2022-08-18T21:51:21.614Z,63.23
2022-08-18T21:53:52.169Z,63.26
2022-08-18T21:56:25.880Z,63.23
2022-08-18T21:59:07.623Z,63.37
2022-08-18T22:01:38.337Z,63.47
2022-08-18T22:04:21.933Z,63.62
2022-08-18T22:06:53.041Z,63.63
2022-08-18T22:09:41.635Z,63.83
2022-08-18T22:12:44.497Z,63.90
2022-08-18T22:15:17.085Z,64.19
2022-08-18T22:17:55.528Z,64.21
2022-08-18T22:20:35.186Z,64.35
2022-08-18T22:23:26.401Z,64.47
2022-08-18T22:25:54.361Z,64.54
2022-08-18T22:28:24.209Z,64.52
2022-08-18T22:30:55.837Z,64.52
2022-08-18T22:33:25.144Z,64.85
2022-08-18T22:35:57.576Z,64.72
2022-08-18T22:38:28.272Z,64.85
2022-08-18T22:40:56.878Z,64.92
2022-08-18T22:43:26.046Z,65.17
2022-08-18T22:45:54.269Z,65.14
2022-08-18T22:48:22.487Z,65.30
2022-08-18T22:50:52.180Z,65.40
2022-08-18T22:53:20.570Z,65.40
2022-08-18T22:55:49.378Z,65.50
2022-08-18T22:58:25.394Z,65.67
2022-08-18T23:01:05.278Z,65.83
2022-08-18T23:03:41.950Z,65.82
2022-08-18T23:06:12.495Z,65.89
2022-08-18T23:08:54.354Z,65.95
2022-08-18T23:11:24.128Z,66.08
2022-08-18T23:13:52.809Z,66.33
2022-08-18T23:16:31.431Z,66.27
2022-08-18T23:19:02.119Z,66.27
2022-08-18T23:21:34.207Z,66.41
2022-08-18T23:24:05.084Z,66.69
2022-08-18T23:26:34.195Z,66.68
2022-08-18T23:29:02.346Z,66.80
2022-08-18T23:31:31.710Z,66.74
2022-08-18T23:34:01.559Z,67.13
2022-08-18T23:36:31.812Z,67.10
2022-08-18T23:39:00.731Z,67.36
2022-08-18T23:41:28.906Z,67.37
2022-08-18T23:43:59.794Z,67.62
2022-08-18T23:46:30.273Z,67.58
2022-08-18T23:49:00.547Z,67.46
2022-08-18T23:51:33.302Z,67.76
2022-08-18T23:54:05.520Z,67.77
2022-08-18T23:56:34.417Z,67.90
2022-08-18T23:59:03.419Z,68.16
